Time;durP1;ratioP1;P1;durP2;ratioP2;P2;SDS_P1;SDS_P2;PMS_P1;PMS_P2;Temp;Humidity;BMP_temperature;BMP_pressure;BME280_temperature;BME280_humidity;BME280_pressure;Samples;Min_cycle;Max_cycle;Signal;HPM_P1;HPM_P2
2023/06/22 00:01:18;;;;;;;8.80;7.60;;;;;;;20.47;100.00;99077.34;109697;1250;66052;-75
2023/06/22 00:03:44;;;;;;;9.80;8.40;;;;;;;20.39;100.00;99067.30;109688;1250;59148;-75
2023/06/22 00:06:11;;;;;;;10.00;8.70;;;;;;;20.34;100.00;99069.31;109550;1251;64141;-75
2023/06/22 00:08:37;;;;;;;10.80;8.30;;;;;;;20.33;100.00;99068.88;109424;1250;59010;-75
2023/06/22 00:11:04;;;;;;;11.30;8.50;;;;;;;20.34;100.00;99069.14;109653;1250;59285;-76
2023/06/22 00:13:30;;;;;;;9.20;7.90;;;;;;;20.34;100.00;99068.39;109670;1249;64872;-75
2023/06/22 00:15:57;;;;;;;8.30;7.40;;;;;;;20.35;100.00;99072.16;109566;1250;58974;-74
2023/06/22 00:18:27;;;;;;;8.60;7.60;;;;;;;20.37;100.00;99075.83;109626;1250;62602;-75
2023/06/22 00:20:57;;;;;;;13.40;8.20;;;;;;;20.41;100.00;99071.64;109656;1250;58950;-75
2023/06/22 00:23:24;;;;;;;9.30;8.10;;;;;;;20.45;100.00;99071.30;109542;1249;59131;-74
2023/06/22 00:25:51;;;;;;;9.10;8.00;;;;;;;20.45;100.00;99065.29;109500;1250;65309;-75
2023/06/22 00:28:17;;;;;;;8.10;7.30;;;;;;;20.44;100.00;99067.02;109708;1249;60097;-74
2023/06/22 00:30:45;;;;;;;8.10;7.30;;;;;;;20.42;100.00;99066.50;109714;1249;62825;-75
2023/06/22 00:33:11;;;;;;;7.90;7.20;;;;;;;20.40;100.00;99066.33;109734;1249;58933;-74
2023/06/22 00:35:41;;;;;;;7.70;6.90;;;;;;;20.40;100.00;99070.11;109688;1249;58947;-74
2023/06/22 00:38:08;;;;;;;8.00;7.20;;;;;;;20.41;100.00;99067.55;109710;1250;66080;-75
2023/06/22 00:40:34;;;;;;;9.20;7.30;;;;;;;20.40;100.00;99072.82;109542;1250;59111;-74
2023/06/22 00:43:01;;;;;;;12.20;7.20;;;;;;;20.40;100.00;99072.83;109648;1250;64111;-75
2023/06/22 00:45:27;;;;;;;7.80;7.00;;;;;;;20.41;100.00;99070.20;109530;1251;59182;-75
2023/06/22 00:47:57;;;;;;;8.10;7.30;;;;;;;20.43;100.00;99066.40;109673;1250;58851;-75
2023/06/22 00:50:28;;;;;;;8.10;7.20;;;;;;;20.44;100.00;99073.14;109703;1250;64860;-75
2023/06/22 00:52:58;;;;;;;9.20;7.20;;;;;;;20.44;100.00;99081.23;109671;1249;60187;-76
2023/06/22 00:55:25;;;;;;;10.20;7.10;;;;;;;20.45;100.00;99085.66;109669;1250;62932;-76
2023/06/22 00:57:56;;;;;;;7.70;7.00;;;;;;;20.47;100.00;99083.34;109616;1249;58998;-76
2023/06/22 01:00:24;;;;;;;9.10;6.90;;;;;;;20.48;100.00;99083.06;109552;1249;59095;-75
2023/06/22 01:02:52;;;;;;;7.80;6.90;;;;;;;20.49;100.00;99083.27;109653;1250;67066;-75
2023/06/22 01:05:21;;;;;;;9.90;7.20;;;;;;;20.51;100.00;99083.92;109651;1249;59774;-75
2023/06/22 01:08:08;;;;;;;8.40;7.70;;;;;;;20.52;100.00;99078.78;109651;1250;62915;-75
2023/06/22 01:10:47;;;;;;;9.90;7.10;;;;;;;20.52;100.00;99075.70;109617;1249;60719;-76
2023/06/22 01:13:20;;;;;;;8.20;7.40;;;;;;;20.52;100.00;99070.66;109564;1250;138845;-75
2023/06/22 01:15:57;;;;;;;7.60;6.80;;;;;;;20.51;100.00;99071.10;109678;1249;66017;-75
2023/06/22 01:18:26;;;;;;;8.20;7.50;;;;;;;20.51;100.00;99073.52;109680;1250;59202;-74
2023/06/22 01:20:55;;;;;;;10.50;6.80;;;;;;;20.49;100.00;99066.31;109641;1250;62834;-74
2023/06/22 01:23:32;;;;;;;8.90;6.70;;;;;;;20.46;100.00;99062.95;109658;1250;58977;-75
2023/06/22 01:26:08;;;;;;;7.60;6.80;;;;;;;20.43;100.00;99060.60;109691;1250;58908;-74
2023/06/22 01:28:49;;;;;;;9.80;7.20;;;;;;;20.40;100.00;99063.80;109699;1250;67247;-76
2023/06/22 01:31:19;;;;;;;8.00;6.50;;;;;;;20.38;100.00;99062.60;109658;1250;60162;-76
2023/06/22 01:33:51;;;;;;;8.50;7.70;;;;;;;20.36;100.00;99058.49;109680;1250;64128;-75
2023/06/22 01:36:19;;;;;;;8.80;7.20;;;;;;;20.35;100.00;99057.30;109646;1250;59136;-74
2023/06/22 01:38:47;;;;;;;8.60;7.70;;;;;;;20.35;100.00;99057.67;109665;1250;59052;-75
2023/06/22 01:41:15;;;;;;;9.40;7.30;;;;;;;20.34;100.00;99054.70;109675;1249;66114;-75
2023/06/22 01:43:42;;;;;;;7.60;6.50;;;;;;;20.33;100.00;99057.02;109661;1250;60161;-76
2023/06/22 01:46:10;;;;;;;8.20;6.50;;;;;;;20.30;100.00;99062.86;109604;1250;64082;-75
2023/06/22 01:48:38;;;;;;;8.70;7.00;;;;;;;20.28;100.00;99068.20;109500;1251;59005;-75
2023/06/22 01:51:05;;;;;;;7.50;6.80;;;;;;;20.26;100.00;99068.91;109648;1250;58968;-75
2023/06/22 01:53:31;;;;;;;11.10;7.80;;;;;;;20.25;100.00;99074.29;109670;1250;64786;-74
2023/06/22 01:55:58;;;;;;;9.70;8.20;;;;;;;20.22;100.00;99073.02;109663;1249;67922;-75
2023/06/22 01:58:27;;;;;;;7.90;6.80;;;;;;;20.17;100.00;99077.09;109630;1249;63919;-76
2023/06/22 02:01:06;;;;;;;13.20;8.80;;;;;;;20.14;100.00;99071.84;109641;1249;59492;-75
2023/06/22 02:03:42;;;;;;;8.00;7.00;;;;;;;20.12;100.00;99064.39;109524;1250;59053;-75
2023/06/22 02:06:17;;;;;;;11.00;7.60;;;;;;;20.09;100.00;99068.70;109666;1250;66042;-75
2023/06/22 02:08:55;;;;;;;7.80;7.00;;;;;;;20.06;100.00;99073.00;109694;1250;60171;-75
2023/06/22 02:11:23;;;;;;;8.70;7.40;;;;;;;20.03;100.00;99071.85;109687;1249;64095;-75
2023/06/22 02:13:50;;;;;;;9.90;8.00;;;;;;;20.02;100.00;99069.71;109383;1250;59035;-75
2023/06/22 02:16:17;;;;;;;9.90;8.30;;;;;;;20.00;100.00;99073.85;109688;1250;59032;-76
2023/06/22 02:18:51;;;;;;;11.50;8.20;;;;;;;19.97;100.00;99081.95;109682;1250;64817;-75
2023/06/22 02:21:21;;;;;;;12.90;9.10;;;;;;;19.95;100.00;99093.13;109710;1249;59867;-74
2023/06/22 02:23:47;;;;;;;10.30;9.10;;;;;;;19.93;100.00;99093.98;109687;1249;62799;-75
2023/06/22 02:26:17;;;;;;;12.20;9.50;;;;;;;19.91;100.00;99093.83;109699;1250;58935;-74
2023/06/22 02:28:43;;;;;;;12.90;9.10;;;;;;;19.88;100.00;99093.67;109729;1250;58997;-75
2023/06/22 02:31:10;;;;;;;10.40;9.10;;;;;;;19.83;100.00;99099.56;109704;1250;66112;-74
2023/06/22 02:33:37;;;;;;;11.50;8.20;;;;;;;19.79;100.00;99102.50;109651;1250;58995;-74
2023/06/22 02:36:05;;;;;;;10.30;9.10;;;;;;;19.74;100.00;99105.88;109680;1250;62901;-74
2023/06/22 02:38:36;;;;;;;13.10;9.90;;;;;;;19.71;100.00;99104.41;109666;1250;58931;-75
2023/06/22 02:41:02;;;;;;;13.80;10.10;;;;;;;19.72;100.00;99106.17;109683;1249;59049;-75
2023/06/22 02:43:29;;;;;;;12.20;11.00;;;;;;;19.72;100.00;99108.27;109691;1250;67231;-75
2023/06/22 02:45:55;;;;;;;11.40;10.10;;;;;;;19.75;100.00;99113.05;109683;1250;58976;-74
2023/06/22 02:48:22;;;;;;;13.50;10.50;;;;;;;19.78;100.00;99114.40;109651;1249;59070;-74
2023/06/22 02:50:48;;;;;;;12.60;9.70;;;;;;;19.80;100.00;99109.48;109686;1250;58955;-74
2023/06/22 02:53:15;;;;;;;13.00;9.90;;;;;;;19.82;100.00;99112.50;109713;1250;59415;-74
2023/06/22 02:55:41;;;;;;;11.40;9.10;;;;;;;19.80;100.00;99112.89;109656;1251;59324;-75
2023/06/22 02:58:08;;;;;;;9.30;8.20;;;;;;;19.77;100.00;99112.80;109652;1250;59305;-75
2023/06/22 03:00:34;;;;;;;9.50;8.60;;;;;;;19.78;100.00;99109.47;109701;1250;64030;-75
2023/06/22 03:03:01;;;;;;;9.40;8.60;;;;;;;19.79;100.00;99109.73;109679;1250;58956;-75
2023/06/22 03:05:28;;;;;;;9.70;8.50;;;;;;;19.79;100.00;99116.77;109620;1250;59103;-75
2023/06/22 03:07:54;;;;;;;10.90;8.80;;;;;;;19.79;100.00;99114.64;109649;1250;59058;-74
2023/06/22 03:10:21;;;;;;;16.00;9.00;;;;;;;19.80;100.00;99121.95;109678;1250;58914;-75
2023/06/22 03:12:47;;;;;;;9.50;8.60;;;;;;;19.82;100.00;99121.52;109643;1249;59038;-76
2023/06/22 03:15:14;;;;;;;10.00;8.80;;;;;;;19.85;100.00;99123.51;109631;1250;59073;-76
2023/06/22 03:17:41;;;;;;;11.10;9.20;;;;;;;19.89;100.00;99126.20;109470;1250;58992;-75
2023/06/22 03:20:10;;;;;;;11.90;9.60;;;;;;;19.91;100.00;99130.52;109700;1250;66449;-75
2023/06/22 03:22:38;;;;;;;10.50;9.20;;;;;;;19.93;100.00;99134.98;109508;1249;59404;-75
2023/06/22 03:25:09;;;;;;;13.60;9.30;;;;;;;19.97;100.00;99133.11;109697;1250;64048;-75
2023/06/22 03:27:37;;;;;;;11.30;10.10;;;;;;;20.02;100.00;99136.77;109675;1250;59109;-75
2023/06/22 03:30:04;;;;;;;14.00;12.60;;;;;;;20.07;100.00;99139.16;109678;1250;59006;-75
2023/06/22 03:32:31;;;;;;;28.20;25.70;;;;;;;20.12;100.00;99141.49;109735;1251;66107;-75
2023/06/22 03:34:58;;;;;;;25.60;23.00;;;;;;;20.20;100.00;99140.12;109678;1249;59085;-76
2023/06/22 03:37:26;;;;;;;25.50;23.10;;;;;;;20.29;100.00;99141.14;109657;1251;63476;-75
2023/06/22 03:39:53;;;;;;;24.70;22.20;;;;;;;20.39;100.00;99146.21;109657;1249;59342;-75
2023/06/22 03:42:19;;;;;;;26.30;23.50;;;;;;;20.50;100.00;99148.48;109687;1250;58857;-75
2023/06/22 03:44:46;;;;;;;21.00;17.30;;;;;;;20.62;100.00;99147.29;109664;1250;64628;-77
2023/06/22 03:47:13;;;;;;;15.60;12.60;;;;;;;20.81;100.00;99148.44;109655;1249;60122;-75
2023/06/22 03:49:39;;;;;;;16.70;12.90;;;;;;;20.99;100.00;99144.19;109688;1250;64031;-75
2023/06/22 03:52:06;;;;;;;15.30;11.40;;;;;;;21.08;100.00;99141.61;109658;1249;58971;-75
2023/06/22 03:54:32;;;;;;;13.50;8.70;;;;;;;21.19;100.00;99147.84;109632;1251;59443;-76
2023/06/22 03:56:59;;;;;;;12.70;9.90;;;;;;;21.29;100.00;99147.97;109669;1250;59245;-76
2023/06/22 03:59:26;;;;;;;14.50;9.20;;;;;;;21.42;100.00;99148.00;109717;1249;60128;-75
2023/06/22 04:01:52;;;;;;;12.40;9.00;;;;;;;21.54;100.00;99143.81;109646;1250;62847;-76
2023/06/22 04:04:19;;;;;;;11.20;7.30;;;;;;;21.64;100.00;99146.84;109494;1254;59019;-76
2023/06/22 04:06:45;;;;;;;10.80;6.80;;;;;;;21.73;100.00;99144.55;109710;1249;58901;-76
2023/06/22 04:09:12;;;;;;;10.20;7.10;;;;;;;21.86;100.00;99145.84;109672;1249;66013;-76
2023/06/22 04:11:38;;;;;;;10.40;6.80;;;;;;;22.43;100.00;99147.55;109339;1251;59050;-76
2023/06/22 04:14:05;;;;;;;10.30;6.30;;;;;;;23.22;100.00;99148.77;109677;1250;59019;-75
2023/06/22 04:16:31;;;;;;;8.50;6.40;;;;;;;23.85;100.00;99152.23;109660;1250;58949;-75
2023/06/22 04:18:58;;;;;;;8.00;5.90;;;;;;;23.72;100.00;99155.93;109670;1249;58989;-75
2023/06/22 04:21:24;;;;;;;6.90;5.50;;;;;;;23.48;100.00;99161.23;109664;1251;59122;-75
2023/06/22 04:23:51;;;;;;;8.60;6.10;;;;;;;23.44;100.00;99166.33;109736;1251;59035;-76
2023/06/22 04:26:20;;;;;;;8.70;6.30;;;;;;;24.11;100.00;99163.65;109670;1250;58993;-76
2023/06/22 04:28:55;;;;;;;10.40;5.60;;;;;;;24.84;100.00;99159.98;109636;1250;59033;-76
2023/06/22 04:31:22;;;;;;;9.90;6.30;;;;;;;25.42;100.00;99158.77;109744;1250;59116;-75
2023/06/22 04:33:51;;;;;;;8.60;5.90;;;;;;;25.90;100.00;99157.59;109671;1250;66010;-75
2023/06/22 04:36:17;;;;;;;8.70;5.70;;;;;;;26.43;100.00;99155.84;109654;1250;60624;-75
2023/06/22 04:38:44;;;;;;;11.30;5.60;;;;;;;26.93;98.83;99153.38;109719;1250;59115;-75
2023/06/22 04:41:14;;;;;;;7.30;5.50;;;;;;;27.32;93.46;99158.29;109655;1251;58996;-76
2023/06/22 04:43:40;;;;;;;;;;;;;;;27.58;89.30;99160.57;109716;1249;59000;-76
2023/06/22 04:46:07;;;;;;;8.20;6.00;;;;;;;27.77;87.28;99166.02;109634;1250;64782;-75
2023/06/22 04:48:33;;;;;;;7.90;5.80;;;;;;;28.11;85.65;99165.83;109672;1251;59846;-75
2023/06/22 04:51:03;;;;;;;8.00;5.60;;;;;;;28.27;83.86;99170.50;109674;1250;64201;-75
2023/06/22 04:53:31;;;;;;;8.70;5.90;;;;;;;27.96;82.17;99172.11;109650;1249;59282;-76
2023/06/22 04:55:58;;;;;;;8.70;6.00;;;;;;;27.50;83.74;99173.20;109678;1250;59061;-76
2023/06/22 04:58:28;;;;;;;9.70;6.00;;;;;;;27.61;82.51;99175.77;109682;1250;64793;-76
2023/06/22 05:00:56;;;;;;;10.20;6.60;;;;;;;27.82;81.42;99172.58;109680;1250;59883;-76
2023/06/22 05:03:26;;;;;;;10.20;6.60;;;;;;;27.96;80.33;99174.19;109666;1250;62480;-76
2023/06/22 05:05:53;;;;;;;10.80;6.90;;;;;;;28.27;78.88;99183.06;109693;1250;59035;-76
2023/06/22 05:08:20;;;;;;;6.90;6.10;;;;;;;28.52;77.02;99185.33;109635;1249;58867;-76
2023/06/22 05:10:46;;;;;;;10.70;6.80;;;;;;;28.69;75.78;99184.81;109670;1250;59307;-76
2023/06/22 05:13:13;;;;;;;10.80;6.60;;;;;;;28.72;75.48;99188.95;109671;1250;59013;-76
2023/06/22 05:15:39;;;;;;;9.40;6.90;;;;;;;28.94;75.12;99191.83;109686;1250;59056;-76
2023/06/22 05:18:06;;;;;;;10.00;9.00;;;;;;;29.17;73.64;99201.95;109358;1249;59084;-76
2023/06/22 05:20:36;;;;;;;10.80;8.30;;;;;;;29.28;72.30;99201.89;109688;1251;58996;-76
2023/06/22 05:23:02;;;;;;;9.40;8.50;;;;;;;29.34;71.88;99196.77;109710;1250;65911;-76
2023/06/22 05:25:30;;;;;;;14.90;9.30;;;;;;;29.63;71.26;99194.35;109644;1251;60228;-76
2023/06/22 05:27:56;;;;;;;13.30;9.50;;;;;;;29.97;70.08;99197.31;109629;1249;63852;-77
2023/06/22 05:30:23;;;;;;;13.90;10.10;;;;;;;30.17;68.62;99200.91;109643;1250;59143;-76
2023/06/22 05:32:49;;;;;;;12.40;9.90;;;;;;;30.30;67.76;99202.09;109699;1249;59008;-76
2023/06/22 05:35:16;;;;;;;11.70;10.40;;;;;;;30.51;67.24;99205.31;109674;1250;65702;-76
2023/06/22 05:37:42;;;;;;;11.00;9.60;;;;;;;30.72;66.96;99204.55;109660;1251;58980;-76
2023/06/22 05:40:09;;;;;;;12.30;11.20;;;;;;;30.65;66.61;99209.54;109491;1251;59176;-76
2023/06/22 05:42:36;;;;;;;11.90;10.00;;;;;;;30.67;66.03;99216.59;109514;1251;59057;-76
2023/06/22 05:45:03;;;;;;;10.60;9.60;;;;;;;30.89;65.24;99214.46;109513;1251;58983;-76
2023/06/22 05:47:29;;;;;;;13.40;10.90;;;;;;;31.12;64.56;99216.98;109526;1251;64971;-76
2023/06/22 05:49:56;;;;;;;11.70;10.60;;;;;;;31.27;63.65;99219.94;109531;1253;58969;-76
2023/06/22 05:52:22;;;;;;;12.30;11.00;;;;;;;31.06;63.27;99221.55;109526;1251;59214;-76
2023/06/22 05:54:49;;;;;;;13.60;10.70;;;;;;;31.09;62.61;99225.52;109516;1251;59097;-75
2023/06/22 05:57:15;;;;;;;12.90;11.10;;;;;;;31.25;62.30;99224.73;109499;1251;59098;-76
2023/06/22 05:59:42;;;;;;;12.60;10.40;;;;;;;31.17;62.26;99229.89;109538;1251;66067;-76
2023/06/22 06:02:08;;;;;;;15.00;10.90;;;;;;;31.00;62.83;99229.66;109531;1251;58981;-76
2023/06/22 06:04:35;;;;;;;13.10;11.80;;;;;;;31.05;62.54;99230.59;109516;1252;59054;-77
2023/06/22 06:07:02;;;;;;;11.80;10.40;;;;;;;31.37;61.72;99228.63;109493;1251;58925;-77
2023/06/22 06:09:28;;;;;;;12.40;11.00;;;;;;;31.63;61.29;99226.25;109514;1251;59107;-75
2023/06/22 06:11:55;;;;;;;12.10;10.90;;;;;;;31.84;60.79;99228.27;109542;1253;66016;-75
2023/06/22 06:14:22;;;;;;;15.70;11.40;;;;;;;31.94;59.41;99232.45;109533;1251;59840;-76
2023/06/22 06:16:49;;;;;;;13.50;11.90;;;;;;;31.60;59.90;99239.09;109531;1251;58924;-75
2023/06/22 06:19:16;;;;;;;13.90;11.80;;;;;;;31.35;60.89;99234.32;109456;1251;59062;-75
2023/06/22 06:21:42;;;;;;;18.30;12.10;;;;;;;31.59;60.27;99224.72;109366;1251;59013;-76
2023/06/22 06:24:09;;;;;;;15.40;12.30;;;;;;;31.95;60.19;99217.24;109522;1253;59264;-75
2023/06/22 06:26:35;;;;;;;13.50;12.10;;;;;;;32.33;59.17;99221.13;109502;1251;58971;-76
2023/06/22 06:29:05;;;;;;;14.60;11.90;;;;;;;32.35;57.98;99228.23;109520;1252;59021;-76
2023/06/22 06:31:31;;;;;;;14.50;11.00;;;;;;;32.37;58.13;99229.98;109507;1251;59335;-75
2023/06/22 06:33:57;;;;;;;14.10;12.60;;;;;;;32.51;57.69;99227.33;109291;1251;59223;-75
2023/06/22 06:36:24;;;;;;;13.40;12.20;;;;;;;32.62;57.80;99224.38;109525;1251;65762;-75
2023/06/22 06:38:51;;;;;;;15.50;13.60;;;;;;;32.52;57.14;99226.49;109493;1251;59055;-75
2023/06/22 06:41:17;;;;;;;15.70;13.00;;;;;;;32.54;56.98;99225.45;109528;1251;65188;-76
2023/06/22 06:43:44;;;;;;;15.30;13.50;;;;;;;32.48;55.77;99225.03;109482;1251;59098;-76
2023/06/22 06:46:10;;;;;;;16.70;15.00;;;;;;;32.23;55.85;99220.27;109505;1251;59136;-76
2023/06/22 06:48:37;;;;;;;15.40;13.60;;;;;;;32.13;56.20;99214.25;109533;1251;66083;-76
2023/06/22 06:51:03;;;;;;;15.00;13.50;;;;;;;32.07;56.97;99209.61;109525;1251;59845;-75
2023/06/22 06:53:30;;;;;;;14.80;13.20;;;;;;;32.08;56.48;99209.09;109509;1251;63840;-75
2023/06/22 06:55:57;;;;;;;14.50;12.60;;;;;;;32.14;56.88;99206.31;109516;1251;59056;-76
2023/06/22 06:58:23;;;;;;;14.60;12.70;;;;;;;32.22;56.67;99211.05;109497;1251;59008;-76
2023/06/22 07:00:50;;;;;;;17.90;12.30;;;;;;;32.34;56.83;99213.92;109489;1251;64899;-76
2023/06/22 07:03:16;;;;;;;13.40;12.10;;;;;;;32.44;56.34;99209.35;109521;1251;59051;-76
2023/06/22 07:05:43;;;;;;;15.00;13.30;;;;;;;32.41;55.32;99205.64;109498;1251;65246;-75
2023/06/22 07:08:10;;;;;;;17.10;12.90;;;;;;;32.15;55.27;99205.15;109490;1251;58960;-76
2023/06/22 07:10:36;;;;;;;15.70;14.30;;;;;;;31.99;55.32;99210.29;109531;1251;59030;-76
2023/06/22 07:13:03;;;;;;;15.10;13.80;;;;;;;31.90;55.86;99209.55;109479;1251;58905;-76
2023/06/22 07:15:29;;;;;;;15.80;14.50;;;;;;;32.01;56.08;99209.31;109552;1252;59009;-76
2023/06/22 07:17:56;;;;;;;17.20;15.50;;;;;;;32.15;55.65;99210.11;109523;1251;59313;-76
2023/06/22 07:20:22;;;;;;;17.00;15.30;;;;;;;32.18;55.30;99211.98;109502;1251;59045;-75
2023/06/22 07:22:49;;;;;;;16.90;15.40;;;;;;;31.96;55.78;99210.41;109499;1252;59064;-76
2023/06/22 07:25:16;;;;;;;16.20;14.80;;;;;;;32.16;55.89;99206.75;109509;1251;59031;-76
2023/06/22 07:28:01;;;;;;;15.90;14.40;;;;;;;32.18;55.08;99204.04;109481;1251;59009;-75
2023/06/22 07:30:29;;;;;;;16.30;14.80;;;;;;;32.14;55.85;99208.86;109476;1251;65256;-75
2023/06/22 07:32:56;;;;;;;15.40;14.10;;;;;;;32.48;56.08;99211.08;109384;1251;58986;-75
2023/06/22 07:35:24;;;;;;;18.90;17.10;;;;;;;32.74;55.48;99219.08;109486;1251;59056;-76
2023/06/22 07:37:50;;;;;;;18.50;16.80;;;;;;;32.71;55.30;99220.33;109429;1251;66024;-76
2023/06/22 07:40:17;;;;;;;17.40;15.70;;;;;;;32.58;55.32;99223.67;109394;1251;59050;-75
2023/06/22 07:42:44;;;;;;;20.00;16.00;;;;;;;32.39;55.08;99224.26;109481;1251;59143;-75
2023/06/22 07:45:10;;;;;;;16.90;15.30;;;;;;;32.28;55.63;99225.46;109474;1251;58994;-75
2023/06/22 07:47:37;;;;;;;17.90;16.40;;;;;;;32.29;55.41;99226.98;109540;1251;58881;-76
2023/06/22 07:50:04;;;;;;;19.00;17.20;;;;;;;32.07;54.90;99230.86;109524;1251;65758;-76
2023/06/22 07:52:31;;;;;;;17.50;15.80;;;;;;;31.79;54.94;99234.80;109300;1251;60390;-75
2023/06/22 07:54:58;;;;;;;17.80;16.30;;;;;;;31.61;55.32;99229.67;109490;1251;64069;-75
2023/06/22 07:57:33;;;;;;;18.20;16.60;;;;;;;31.66;55.69;99230.02;109494;1251;59030;-75
2023/06/22 08:00:00;;;;;;;17.80;16.20;;;;;;;31.57;55.56;99228.20;109536;1251;59183;-75
2023/06/22 08:02:27;;;;;;;20.00;18.10;;;;;;;31.44;55.52;99234.17;109501;1251;66135;-75
2023/06/22 08:04:53;;;;;;;18.30;16.70;;;;;;;31.27;55.39;99233.78;109291;1251;59019;-75
2023/06/22 08:07:20;;;;;;;17.50;15.80;;;;;;;31.02;55.49;99236.17;109508;1251;62961;-76
2023/06/22 08:09:48;;;;;;;19.20;17.40;;;;;;;30.81;56.11;99232.95;109237;1251;59028;-75
2023/06/22 08:12:15;;;;;;;18.60;16.80;;;;;;;30.61;56.72;99233.70;109484;1252;58954;-75
2023/06/22 08:14:44;;;;;;;20.00;18.20;;;;;;;30.49;57.04;99240.80;109524;1256;65759;-75
2023/06/22 08:17:10;;;;;;;18.70;16.90;;;;;;;30.58;57.38;99242.23;109512;1251;60287;-76
2023/06/22 08:19:37;;;;;;;18.00;16.60;;;;;;;30.78;56.86;99245.47;109379;1251;59103;-76
2023/06/22 08:22:04;;;;;;;18.60;17.10;;;;;;;30.80;56.37;99245.75;109293;1251;59095;-76
2023/06/22 08:24:30;;;;;;;19.00;17.20;;;;;;;30.82;56.64;99243.61;109181;1251;59033;-76
2023/06/22 08:26:57;;;;;;;19.00;17.20;;;;;;;31.08;56.90;99243.67;109479;1252;59424;-76
2023/06/22 08:29:23;;;;;;;19.40;17.50;;;;;;;31.43;56.40;99242.33;109480;1251;58941;-76
2023/06/22 08:31:50;;;;;;;19.20;17.50;;;;;;;31.49;55.47;99246.58;109478;1251;63122;-76
2023/06/22 08:34:21;;;;;;;20.00;18.40;;;;;;;31.41;54.88;99249.77;109515;1251;58951;-76
2023/06/22 08:36:52;;;;;;;20.90;19.20;;;;;;;31.45;54.95;99246.70;109543;1251;58960;-76
2023/06/22 08:39:20;;;;;;;20.50;18.70;;;;;;;31.60;54.89;99241.00;109514;1251;65091;-76
2023/06/22 08:41:48;;;;;;;19.00;17.30;;;;;;;31.55;54.45;99246.74;109483;1251;59937;-76
2023/06/22 08:44:18;;;;;;;20.00;18.40;;;;;;;31.36;54.98;99245.08;109512;1251;64175;-75
2023/06/22 08:46:44;;;;;;;20.00;18.20;;;;;;;31.24;54.72;99248.66;109472;1251;59010;-75
2023/06/22 08:49:11;;;;;;;21.30;19.50;;;;;;;31.09;54.74;99248.71;109523;1252;58899;-75
2023/06/22 08:51:37;;;;;;;20.40;18.70;;;;;;;31.09;54.63;99248.86;109503;1251;59628;-75
2023/06/22 08:54:04;;;;;;;20.80;18.80;;;;;;;31.29;54.43;99246.38;109435;1252;59053;-75
2023/06/22 08:56:32;;;;;;;22.60;20.40;;;;;;;31.34;53.60;99249.16;109485;1251;64140;-75
2023/06/22 08:58:58;;;;;;;21.40;19.70;;;;;;;31.37;53.62;99253.62;109472;1255;59019;-75
2023/06/22 09:01:24;;;;;;;21.70;19.60;;;;;;;31.56;53.43;99254.27;109492;1251;59311;-73
2023/06/22 09:03:55;;;;;;;19.70;18.00;;;;;;;31.56;52.96;99256.60;109581;1253;59153;-73
2023/06/22 09:06:22;;;;;;;19.90;18.20;;;;;;;31.76;53.32;99257.34;109702;1250;60143;-73
2023/06/22 09:08:49;;;;;;;18.30;16.70;;;;;;;31.87;53.25;99251.33;109703;1250;58988;-73
2023/06/22 09:11:15;;;;;;;19.00;17.40;;;;;;;31.76;53.16;99249.42;109695;1253;58951;-73
2023/06/22 09:13:42;;;;;;;19.00;17.50;;;;;;;31.48;52.89;99254.20;109359;1251;59280;-73
2023/06/22 09:16:08;;;;;;;18.50;17.10;;;;;;;31.37;53.42;99247.74;109400;1250;66051;-74
2023/06/22 09:18:36;;;;;;;18.00;16.40;;;;;;;31.60;54.40;99243.33;109694;1253;59009;-73
2023/06/22 09:21:02;;;;;;;17.90;16.20;;;;;;;32.04;54.15;99241.08;109717;1250;64028;-73
2023/06/22 09:23:29;;;;;;;19.00;17.20;;;;;;;32.35;53.45;99241.85;109666;1249;59060;-73
2023/06/22 09:25:55;;;;;;;20.80;18.90;;;;;;;32.54;51.83;99239.59;109389;1250;58988;-74
2023/06/22 09:28:22;;;;;;;20.00;18.50;;;;;;;32.25;50.93;99240.57;109701;1253;66029;-74
2023/06/22 09:30:48;;;;;;;17.70;16.30;;;;;;;32.06;51.46;99236.30;109711;1250;59164;-73
2023/06/22 09:33:15;;;;;;;18.50;16.80;;;;;;;32.29;52.17;99232.67;109714;1251;63735;-74
2023/06/22 09:35:41;;;;;;;17.50;15.90;;;;;;;32.48;52.69;99226.58;109664;1253;58955;-73
2023/06/22 09:38:08;;;;;;;18.20;16.90;;;;;;;32.51;52.48;99221.08;109535;1251;59016;-74
2023/06/22 09:40:39;;;;;;;18.90;17.20;;;;;;;32.40;52.64;99220.88;109702;1249;59148;-74
2023/06/22 09:43:06;;;;;;;19.70;18.10;;;;;;;32.19;52.62;99217.80;109704;1250;61387;-74
2023/06/22 09:45:32;;;;;;;21.40;19.50;;;;;;;31.72;52.38;99218.98;109708;1251;64701;-74
2023/06/22 09:47:59;;;;;;;21.50;19.60;;;;;;;31.27;53.20;99219.41;109687;1251;59305;-72
2023/06/22 09:50:26;;;;;;;21.50;19.60;;;;;;;31.10;53.74;99222.98;109698;1251;58974;-73
2023/06/22 09:52:54;;;;;;;21.00;19.40;;;;;;;31.22;54.36;99218.77;109694;1251;59296;-74
2023/06/22 09:55:21;;;;;;;21.90;20.10;;;;;;;31.49;54.41;99213.09;109702;1251;59773;-74
2023/06/22 09:57:49;;;;;;;21.60;19.80;;;;;;;31.66;54.09;99208.10;109654;1250;64005;-74
2023/06/22 10:00:17;;;;;;;21.50;19.60;;;;;;;31.79;53.28;99201.71;109694;1253;59074;-74
2023/06/22 10:02:44;;;;;;;23.10;21.10;;;;;;;31.77;53.13;99200.01;109439;1250;59413;-74
2023/06/22 10:05:11;;;;;;;21.30;19.60;;;;;;;31.90;53.57;99200.83;109533;1251;64833;-74
2023/06/22 10:07:42;;;;;;;22.60;20.50;;;;;;;32.11;52.72;99203.82;109693;1251;60223;-72
2023/06/22 10:10:09;;;;;;;21.30;19.40;;;;;;;32.13;52.29;99208.27;109517;1250;62490;-73
2023/06/22 10:12:36;;;;;;;22.90;21.00;;;;;;;32.07;51.36;99207.31;109654;1251;59098;-73
2023/06/22 10:15:03;;;;;;;21.70;19.70;;;;;;;32.05;51.47;99198.36;109659;1250;59024;-74
2023/06/22 10:17:30;;;;;;;20.50;18.60;;;;;;;31.99;51.01;99190.62;109709;1251;65955;-74
2023/06/22 10:19:56;;;;;;;20.60;19.10;;;;;;;31.93;50.68;99193.03;109700;1251;58972;-73
2023/06/22 10:22:22;;;;;;;21.80;20.00;;;;;;;32.10;50.34;99196.03;109673;1249;58965;-73
2023/06/22 10:24:49;;;;;;;20.00;18.40;;;;;;;32.10;49.65;99198.39;109667;1253;58920;-73
2023/06/22 10:27:15;;;;;;;19.40;18.00;;;;;;;32.05;48.80;99201.62;109681;1249;59050;-74
2023/06/22 10:29:42;;;;;;;20.00;18.40;;;;;;;31.90;48.45;99197.92;109697;1251;59012;-73
2023/06/22 10:32:09;;;;;;;19.60;18.10;;;;;;;31.90;49.20;99190.31;109708;1251;60118;-73
2023/06/22 10:34:35;;;;;;;19.90;18.40;;;;;;;32.12;49.47;99187.58;109652;1251;59064;-73
2023/06/22 10:37:02;;;;;;;20.30;18.90;;;;;;;32.29;48.84;99185.14;109688;1250;58959;-73
2023/06/22 10:39:28;;;;;;;21.00;19.30;;;;;;;32.28;48.57;99183.99;109665;1249;59024;-74
2023/06/22 10:41:56;;;;;;;20.80;19.10;;;;;;;32.23;48.77;99178.02;109393;1251;58958;-73
2023/06/22 10:44:22;;;;;;;19.30;17.70;;;;;;;32.31;48.94;99176.67;109682;1251;59373;-74
2023/06/22 10:46:48;;;;;;;18.90;17.30;;;;;;;32.39;48.10;99173.88;109500;1249;59123;-74
2023/06/22 10:49:15;;;;;;;19.20;17.60;;;;;;;32.26;47.63;99173.64;109647;1251;58949;-74
2023/06/22 10:51:41;;;;;;;19.80;18.20;;;;;;;32.13;47.68;99168.73;109731;1249;58888;-73
2023/06/22 10:54:08;;;;;;;20.20;18.60;;;;;;;31.84;48.04;99169.05;109723;1250;59328;-74
2023/06/22 10:56:35;;;;;;;19.80;18.30;;;;;;;31.63;48.68;99169.33;109674;1251;59015;-73
2023/06/22 10:59:01;;;;;;;19.90;18.00;;;;;;;31.43;48.60;99172.64;109722;1251;64050;-75
2023/06/22 11:01:28;;;;;;;19.40;17.90;;;;;;;31.43;49.24;99167.69;109670;1250;58970;-74
2023/06/22 11:03:54;;;;;;;19.10;17.30;;;;;;;31.70;49.58;99158.77;109693;1249;58859;-74
2023/06/22 11:06:21;;;;;;;19.00;17.40;;;;;;;31.89;48.88;99159.04;109691;1250;59250;-74
2023/06/22 11:08:47;;;;;;;17.80;16.20;;;;;;;31.94;48.32;99157.09;109698;1250;59129;-74
2023/06/22 11:11:15;;;;;;;16.80;15.50;;;;;;;31.96;48.68;99153.98;109566;1251;58977;-75
2023/06/22 11:13:41;;;;;;;17.10;15.90;;;;;;;32.12;48.93;99147.88;109648;1251;59033;-73